Observations for CAMBRIDGE, United Kingdom (EGSC)

EGSC 140820Z 29007KT 9999 FEW020 BKN040 17/12 Q1015 
EGSC 140750Z 30007KT 9999 BKN039 17/12 Q1015
EGSC 140720Z 29005KT 260V320 9999 BKN037 16/12 Q1015
EGSC 140650Z 25006KT 9999 BKN034 15/12 Q1015
EGSC 131720Z VRB02KT 9999 SCT034CB 19/17 Q1007  
EGSC 131650Z VRB02KT 9999 FEW018 SCT034CB 19/17 Q1007   
EGSC 131550Z VRB02KT 9000 FEW018 SCT034CB 19/16 Q1007   
EGSC 131520Z VRB03KT 7000 -RA SCT012 SCT034CB 18/16 Q1007   
EGSC 131450Z 21004KT 7000 -RA SCT012 SCT034CB 18/17 Q1007   
EGSC 131420Z VRB03KT 7000 -SHRA SCT012 SCT027 18/16 Q1006   
EGSC 131350Z 31009KT 7000 3000SW SHRA SCT012 SCT027 19/16 Q1006 
EGSC 131320Z 35005KT 8000 VCSH FEW012 SCT027 19/16 Q1006
EGSC 131250Z 25004KT 9000 FEW018 SCT027 20/17 Q1006 
EGSC 131220Z 29008KT 8000 -RA SCT018 SCT027 19/16 Q1006 
EGSC 131150Z 28007KT 9999 SCT018 20/15 Q1006
EGSC 131120Z 30006KT 9999 SCT016 21/15 Q1006
EGSC 131050Z 29006KT 9999 SCT016 19/15 Q1006
EGSC 131020Z 28007KT 9999 FEW010 SCT016 20/15 Q1006 
EGSC 130950Z 28007KT 9999 FEW010 SCT014 20/15 Q1005 
EGSC 130920Z 27007KT 9000 BKN010 19/16 Q1005
EGSC 130850Z 27007KT 9000 OVC008 18/15 Q1005
EGSC 130820Z 27007KT 9000 SCT007 BKN011 17/15 Q1005 
EGSC 130750Z 25006KT 9999 SCT007 BKN012 17/15 Q1005